Time;durP1;ratioP1;P1;durP2;ratioP2;P2;SDS_P1;SDS_P2;PMS_P1;PMS_P2;Temp;Humidity;BMP_temperature;BMP_pressure;BME280_temperature;BME280_humidity;BME280_pressure;Samples;Min_cycle;Max_cycle;Signal;HPM_P1;HPM_P2
2023/01/06 09:35:22;;;;;;;3.72;2.30;;;;;;;7.81;100.00;101075.25;5555292;32;295281;-89
2023/01/06 09:38:27;;;;;;;4.12;2.20;;;;;;;7.78;100.00;101075.34;5533531;32;33173;-89
2023/01/06 09:41:54;;;;;;;2.37;1.80;;;;;;;7.77;100.00;101078.91;5526334;32;33813;-89
2023/01/06 09:45:02;;;;;;;4.78;2.15;;;;;;;7.90;100.00;101062.72;5526038;32;35111;-93
2023/01/06 09:48:12;;;;;;;2.87;1.98;;;;;;;7.99;100.00;101072.16;5527405;32;35199;-89
2023/01/06 09:51:20;;;;;;;3.72;2.30;;;;;;;8.15;100.00;101072.59;5526190;32;34144;-90
2023/01/06 09:54:41;;;;;;;6.28;2.25;;;;;;;8.26;100.00;101067.00;5524403;32;32527;-89
2023/01/06 09:57:49;;;;;;;6.83;2.23;;;;;;;8.30;100.00;101072.13;5526465;32;34499;-87
2023/01/06 10:00:55;;;;;;;2.90;2.28;;;;;;;8.68;100.00;101079.00;5532668;32;33794;-87
2023/01/06 10:03:59;;;;;;;4.45;2.50;;;;;;;8.60;100.00;101073.97;5528905;32;34531;-87
2023/01/06 10:07:07;;;;;;;3.97;2.55;;;;;;;8.77;100.00;101078.75;5527803;32;33876;-88
2023/01/06 10:10:33;;;;;;;6.15;2.58;;;;;;;8.72;100.00;101083.31;5526036;32;34248;-88
2023/01/06 10:13:52;;;;;;;5.82;2.97;;;;;;;9.10;100.00;101078.56;5526854;32;33983;-87
2023/01/06 10:17:26;;;;;;;6.53;2.55;;;;;;;8.80;100.00;101080.44;5528774;32;33688;-87
2023/01/06 10:20:38;;;;;;;7.35;3.08;;;;;;;8.76;100.00;101062.00;5537940;32;34501;-87
2023/01/06 10:24:00;;;;;;;5.18;1.95;;;;;;;8.48;100.00;101059.28;5534461;32;34640;-90
2023/01/06 10:27:26;;;;;;;4.07;2.20;;;;;;;8.94;100.00;101053.53;5526159;32;33789;-87
2023/01/06 10:30:44;;;;;;;5.35;2.37;;;;;;;9.22;100.00;101057.91;5526931;32;34072;-88
2023/01/06 10:33:50;;;;;;;3.92;2.37;;;;;;;9.07;100.00;101062.81;5528471;32;34007;-88
2023/01/06 10:37:18;;;;;;;7.82;2.22;;;;;;;9.04;100.00;101054.97;5536266;32;33747;-88
2023/01/06 10:40:26;;;;;;;6.47;2.40;;;;;;;9.11;100.00;101051.19;5552141;32;34773;-88
2023/01/06 10:43:29;;;;;;;4.95;2.50;;;;;;;9.43;100.00;101049.25;5534611;32;33136;-88
2023/01/06 10:46:34;;;;;;;4.62;2.58;;;;;;;9.13;100.00;101053.78;5515763;32;33076;-88
2023/01/06 10:49:37;;;;;;;5.78;2.22;;;;;;;9.54;100.00;101048.00;5515009;32;35454;-87
2023/01/06 10:52:41;;;;;;;4.15;2.33;;;;;;;9.61;100.00;101057.47;5513963;32;33568;-87
2023/01/06 14:36:02;;;;;;;6.20;3.35;;;;;;;8.66;100.00;100956.53;5574460;32;277549;-87
2023/01/06 14:39:16;;;;;;;12.73;3.80;;;;;;;8.60;100.00;100941.75;5592206;31;32756;-88
2023/01/06 14:42:28;;;;;;;5.57;3.33;;;;;;;8.60;100.00;100954.97;5580933;32;33986;-88
2023/01/06 14:45:38;;;;;;;8.05;3.70;;;;;;;8.58;100.00;100957.66;5587302;32;32707;-89
2023/01/06 14:48:49;;;;;;;7.57;3.50;;;;;;;8.53;100.00;100961.34;5585885;32;33619;-88
2023/01/06 14:51:54;;;;;;;;;;;;;;;8.49;100.00;100956.13;5580386;31;33951;-88
2023/01/06 14:54:58;;;;;;;4.87;3.20;;;;;;;8.41;100.00;100957.28;5583132;32;33766;-89
2023/01/06 14:58:01;;;;;;;8.70;4.22;;;;;;;8.41;100.00;100958.16;5583941;32;32477;-88
2023/01/06 15:01:05;;;;;;;7.05;3.95;;;;;;;8.36;100.00;100957.44;5591044;31;34129;-87
2023/01/06 15:04:28;;;;;;;8.32;3.90;;;;;;;8.27;100.00;100949.78;5581868;31;33554;-87
2023/01/06 15:07:31;;;;;;;8.82;4.37;;;;;;;8.36;100.00;100957.44;5584473;31;33767;-87
2023/01/06 15:10:37;;;;;;;7.78;4.22;;;;;;;8.29;100.00;100955.91;5583816;32;34322;-87
2023/01/06 15:13:42;;;;;;;6.28;4.28;;;;;;;8.29;100.00;100961.19;5582919;31;34247;-91
2023/01/06 15:16:45;;;;;;;7.40;4.07;;;;;;;8.08;100.00;100960.91;5585690;31;33749;-90
2023/01/06 15:19:50;;;;;;;10.30;4.40;;;;;;;7.84;100.00;100949.31;5589073;31;34945;-91
2023/01/06 15:22:54;;;;;;;5.80;4.03;;;;;;;7.63;100.00;100956.91;5595219;31;32865;-87
2023/01/06 15:25:57;;;;;;;8.98;4.57;;;;;;;7.45;100.00;100945.09;5588361;31;34916;-87
2023/01/06 15:29:05;;;;;;;10.15;4.20;;;;;;;7.26;100.00;100943.81;5584656;31;33904;-87
2023/01/06 15:32:11;;;;;;;7.97;3.90;;;;;;;7.13;100.00;100950.31;5581300;32;32455;-87
2023/01/06 15:35:35;;;;;;;10.88;4.43;;;;;;;7.01;100.00;100948.87;5586881;32;32258;-87
2023/01/06 15:38:40;;;;;;;8.57;4.68;;;;;;;6.86;100.00;100943.09;5581556;31;33435;-87
2023/01/06 15:41:44;;;;;;;9.15;4.50;;;;;;;6.80;100.00;100942.37;5583203;32;34681;-87
2023/01/06 15:44:59;;;;;;;8.98;4.45;;;;;;;6.71;100.00;100946.09;5579758;31;34228;-87
2023/01/06 15:48:10;;;;;;;9.77;4.62;;;;;;;6.64;100.00;100941.87;5578001;32;33956;-88
2023/01/06 15:51:14;;;;;;;;;;;;;;;6.51;100.00;100938.66;5581898;32;33048;-87
2023/01/06 15:54:18;;;;;;;9.18;4.72;;;;;;;6.39;100.00;100945.94;5585043;32;34173;-88
2023/01/06 15:57:21;;;;;;;16.52;4.82;;;;;;;6.43;100.00;100950.25;5585392;32;34075;-88
2023/01/06 16:00:32;;;;;;;8.88;4.72;;;;;;;6.38;100.00;100941.59;5572092;32;35376;-88
2023/01/06 16:03:38;;;;;;;8.27;5.32;;;;;;;6.33;100.00;100954.00;5570183;32;34528;-87
2023/01/06 16:06:40;;;;;;;9.70;5.32;;;;;;;6.30;100.00;100947.03;5571649;32;33517;-88
2023/01/06 16:09:43;;;;;;;12.45;5.57;;;;;;;6.25;100.00;100955.94;5577545;32;33946;-88
2023/01/06 16:13:17;;;;;;;12.70;6.43;;;;;;;6.30;100.00;100962.84;5572930;32;34404;-88
2023/01/06 16:16:22;;;;;;;14.73;6.30;;;;;;;6.34;100.00;100971.56;5570327;32;33590;-87
2023/01/06 16:19:26;;;;;;;13.57;6.57;;;;;;;6.47;100.00;100967.75;5569641;32;33579;-91
2023/01/06 16:23:01;;;;;;;17.20;7.12;;;;;;;6.40;100.00;100971.44;5571483;32;34030;-91
2023/01/06 16:26:15;;;;;;;17.17;9.38;;;;;;;6.33;100.00;100964.53;5536773;31;34183;-88
2023/01/06 16:29:41;;;;;;;12.02;6.45;;;;;;;6.69;100.00;100971.66;5571085;32;34543;-87
2023/01/06 16:32:45;;;;;;;10.35;5.57;;;;;;;6.86;100.00;100973.88;5575188;32;32668;-87
2023/01/06 16:35:50;;;;;;;13.38;5.12;;;;;;;6.81;100.00;100974.00;5574967;32;34318;-87
2023/01/06 16:38:53;;;;;;;11.07;5.10;;;;;;;6.93;100.00;100969.31;5571161;32;33552;-88
2023/01/06 16:41:58;;;;;;;15.00;5.32;;;;;;;6.94;100.00;100977.16;5569923;32;33764;-88
2023/01/06 16:48:21;;;;;;;11.07;6.05;;;;;;;6.94;100.00;100981.59;5575121;32;34758;-87
2023/01/06 16:51:27;;;;;;;10.77;5.50;;;;;;;6.90;100.00;100970.25;5580014;32;34186;-87
2023/01/06 16:54:30;;;;;;;12.85;5.78;;;;;;;6.66;100.00;100967.31;5579590;32;34028;-88
2023/01/06 16:57:32;;;;;;;12.27;6.07;;;;;;;6.53;100.00;100963.25;5575217;32;33955;-87
2023/01/06 17:00:38;;;;;;;11.40;5.90;;;;;;;6.57;100.00;100970.16;5578541;32;34131;-87
2023/01/06 17:03:41;;;;;;;9.93;5.47;;;;;;;6.63;100.00;100972.63;5572210;32;33630;-87
2023/01/06 17:06:44;;;;;;;14.23;5.97;;;;;;;6.66;100.00;100982.25;5571854;32;32379;-87
2023/01/06 17:09:49;;;;;;;12.13;6.47;;;;;;;6.51;100.00;100967.66;5576496;32;34649;-87
2023/01/06 17:16:28;;;;;;;;;;;;;;;6.68;100.00;100954.94;5571308;32;34033;-89
2023/01/06 17:19:33;;;;;;;10.80;6.32;;;;;;;6.39;100.00;100967.03;5568299;32;34583;-88
2023/01/06 17:22:37;;;;;;;10.68;6.03;;;;;;;6.32;100.00;100962.81;5570569;32;34037;-88
2023/01/06 17:25:41;;;;;;;13.48;6.60;;;;;;;6.38;100.00;100957.41;5569049;32;33462;-88
2023/01/06 17:28:48;;;;;;;13.38;7.25;;;;;;;6.34;100.00;100964.50;5569125;32;34091;-88
2023/01/06 17:31:53;;;;;;;14.90;7.22;;;;;;;6.29;100.00;100969.00;5569243;32;34102;-88
2023/01/06 17:34:56;;;;;;;12.65;7.80;;;;;;;6.28;100.00;100958.53;5568015;32;32419;-88
2023/01/06 17:38:07;;;;;;;15.48;8.32;;;;;;;6.25;100.00;100954.19;5568825;32;33957;-87
2023/01/06 17:41:10;;;;;;;15.68;9.05;;;;;;;6.23;100.00;100961.25;5568636;32;32969;-88
2023/01/06 17:44:18;;;;;;;12.23;7.35;;;;;;;6.27;100.00;100960.28;5568001;32;33819;-88
2023/01/06 17:47:21;;;;;;;16.75;8.70;;;;;;;6.27;100.00;100962.91;5567511;32;33606;-87
2023/01/06 17:50:32;;;;;;;20.23;10.02;;;;;;;6.22;100.00;100969.22;5568545;32;33980;-88
2023/01/06 17:56:58;;;;;;;21.58;9.82;;;;;;;6.26;100.00;100970.84;5566681;32;32651;-87
2023/01/06 18:00:11;;;;;;;15.43;9.70;;;;;;;6.29;100.00;100973.44;5568173;32;32442;-88
2023/01/06 18:03:20;;;;;;;17.25;10.07;;;;;;;6.35;100.00;100983.84;5568045;32;35059;-87
2023/01/06 18:06:24;;;;;;;17.83;10.15;;;;;;;6.37;100.00;100991.69;5572838;32;32632;-88
2023/01/06 18:09:28;;;;;;;20.33;9.75;;;;;;;6.36;100.00;100987.31;5567008;32;33681;-88
2023/01/06 18:12:30;;;;;;;17.80;10.35;;;;;;;6.46;100.00;100980.94;5570164;32;33784;-87
2023/01/06 18:15:33;;;;;;;19.85;10.32;;;;;;;6.46;100.00;100975.69;5567258;32;33886;-88
2023/01/06 18:18:39;;;;;;;17.33;10.77;;;;;;;6.43;100.00;100988.91;5567375;32;34019;-87
2023/01/06 18:21:45;;;;;;;19.58;10.65;;;;;;;6.44;100.00;100988.03;5568145;32;33630;-88
2023/01/06 18:24:50;;;;;;;17.85;10.38;;;;;;;6.38;100.00;100990.81;5574171;32;33708;-87
2023/01/06 18:27:53;;;;;;;25.83;10.82;;;;;;;6.41;100.00;101003.91;5573032;32;33801;-87
2023/01/06 18:31:01;;;;;;;22.02;10.00;;;;;;;6.40;100.00;100987.25;5572064;32;33820;-92
2023/01/06 18:34:23;;;;;;;19.73;9.82;;;;;;;6.50;100.00;100985.25;5566961;32;33671;-92
2023/01/06 18:37:32;;;;;;;18.95;9.82;;;;;;;6.55;100.00;100983.34;5567780;32;34393;-88
2023/01/06 18:40:37;;;;;;;16.85;9.82;;;;;;;6.59;100.00;100984.19;5579162;32;32808;-88
2023/01/06 18:43:41;;;;;;;15.30;8.88;;;;;;;6.70;100.00;100989.19;5570331;32;33046;-87
2023/01/06 18:46:44;;;;;;;15.98;8.07;;;;;;;6.94;100.00;100998.28;5566916;32;34513;-88
2023/01/06 18:49:48;;;;;;;20.37;8.63;;;;;;;7.00;100.00;100998.12;5567393;32;34291;-88
2023/01/06 18:52:57;;;;;;;15.52;8.98;;;;;;;7.34;100.00;100993.75;5569261;32;34139;-88
2023/01/06 18:56:01;;;;;;;13.75;8.20;;;;;;;7.50;100.00;100996.00;5572413;32;34068;-88
2023/01/06 18:59:13;;;;;;;14.45;8.40;;;;;;;7.57;100.00;100994.03;5576940;32;35018;-88
2023/01/06 19:02:36;;;;;;;16.12;8.82;;;;;;;7.57;100.00;100994.91;5575177;32;34544;-88
2023/01/06 19:05:40;;;;;;;19.40;8.73;;;;;;;7.43;100.00;101000.56;5568204;32;34241;-88
2023/01/06 19:08:47;;;;;;;15.07;9.20;;;;;;;7.51;100.00;100998.59;5567822;32;34138;-88
2023/01/06 19:12:07;;;;;;;16.77;9.00;;;;;;;7.44;100.00;101004.09;5570801;32;32734;-88
2023/01/06 19:15:24;;;;;;;17.85;8.93;;;;;;;7.45;100.00;100989.97;5570465;32;33077;-87
2023/01/06 19:18:32;;;;;;;17.87;8.63;;;;;;;7.46;100.00;100987.28;5566276;32;32481;-88
2023/01/06 19:21:36;;;;;;;16.15;8.52;;;;;;;7.58;100.00;100980.81;5571506;32;33732;-88
2023/01/06 19:24:46;;;;;;;18.35;8.65;;;;;;;7.69;100.00;100981.38;5585994;32;34673;-90
2023/01/06 19:27:54;;;;;;;16.27;8.77;;;;;;;7.71;100.00;100959.34;5584371;32;32288;-91
2023/01/06 19:30:59;;;;;;;15.48;8.40;;;;;;;7.72;100.00;100954.03;5585505;32;33860;-88
2023/01/06 19:34:02;;;;;;;20.67;10.13;;;;;;;7.66;100.00;100954.19;5584162;32;33515;-88
2023/01/06 19:37:13;;;;;;;16.98;9.23;;;;;;;7.53;100.00;100945.75;5585413;32;35945;-88
2023/01/06 19:40:28;;;;;;;20.45;10.57;;;;;;;7.66;100.00;100952.41;5585125;32;34076;-88
2023/01/06 19:43:34;;;;;;;21.35;10.60;;;;;;;7.47;100.00;100948.53;5585406;32;34229;-88
2023/01/06 19:46:42;;;;;;;18.42;10.13;;;;;;;7.53;100.00;100951.91;5584299;32;34390;-88
2023/01/06 19:49:51;;;;;;;20.12;10.48;;;;;;;7.39;100.00;100962.81;5585255;32;34488;-88
2023/01/06 19:52:58;;;;;;;20.80;11.00;;;;;;;7.47;100.00;100957.34;5584567;32;33730;-88
2023/01/06 19:56:22;;;;;;;22.13;12.02;;;;;;;7.43;100.00;100960.13;5571660;32;33618;-88
2023/01/06 19:59:30;;;;;;;18.42;11.30;;;;;;;7.34;100.00;100948.03;5584481;32;34273;-88
2023/01/06 20:02:43;;;;;;;22.70;12.23;;;;;;;7.31;100.00;100945.47;5585021;32;33976;-88
2023/01/06 20:05:47;;;;;;;23.25;12.60;;;;;;;7.32;100.00;100949.81;5583640;32;32944;-88
2023/01/06 20:08:52;;;;;;;28.25;13.23;;;;;;;7.28;100.00;100949.94;5583658;32;32516;-88
2023/01/06 20:11:55;;;;;;;21.02;13.18;;;;;;;7.26;100.00;100957.00;5584246;32;34314;-88
2023/01/06 20:14:58;;;;;;;23.55;13.48;;;;;;;7.27;100.00;100952.59;5584550;32;35128;-88
2023/01/06 20:18:01;;;;;;;23.83;14.00;;;;;;;7.30;100.00;100951.66;5584118;32;32736;-88
2023/01/06 20:21:03;;;;;;;23.25;13.32;;;;;;;7.26;100.00;100957.00;5584635;32;34139;-88
2023/01/06 20:24:07;;;;;;;27.33;14.05;;;;;;;7.22;100.00;100971.19;5584408;32;35618;-88
2023/01/06 20:27:09;;;;;;;26.02;14.52;;;;;;;7.21;100.00;100973.88;5583355;32;33532;-88
2023/01/06 20:30:13;;;;;;;26.20;15.45;;;;;;;7.18;100.00;100969.53;5583592;32;32649;-88
2023/01/06 20:33:16;;;;;;;26.60;15.05;;;;;;;7.15;100.00;100974.91;5582913;32;33962;-88
2023/01/06 20:36:19;;;;;;;25.50;15.48;;;;;;;7.15;100.00;100973.13;5582761;32;32443;-88
2023/01/06 20:39:22;;;;;;;31.52;16.58;;;;;;;7.10;100.00;100975.00;5582931;32;34301;-88
2023/01/06 20:42:25;;;;;;;27.92;16.17;;;;;;;7.06;100.00;100972.50;5582865;32;33670;-88
2023/01/06 20:45:28;;;;;;;28.85;16.00;;;;;;;7.05;100.00;100966.38;5583424;32;34170;-89
2023/01/06 20:48:31;;;;;;;26.98;15.50;;;;;;;7.07;100.00;100971.59;5584154;32;35322;-88
2023/01/06 20:51:34;;;;;;;27.48;15.57;;;;;;;7.05;100.00;100978.69;5583232;32;33262;-89
2023/01/06 20:54:39;;;;;;;30.58;14.93;;;;;;;6.99;100.00;100974.44;5584580;32;33764;-88
2023/01/06 20:57:41;;;;;;;35.30;17.60;;;;;;;6.94;100.00;100965.78;5582585;32;34083;-88
2023/01/06 21:00:45;;;;;;;32.38;15.55;;;;;;;6.93;100.00;100970.16;5582917;32;34744;-88
2023/01/06 21:03:47;;;;;;;30.10;15.73;;;;;;;6.93;100.00;100970.16;5582693;32;36189;-88
2023/01/06 21:06:50;;;;;;;30.85;16.33;;;;;;;6.95;100.00;100976.25;5583753;32;35209;-88
2023/01/06 21:09:53;;;;;;;27.62;16.25;;;;;;;6.90;100.00;100974.66;5584298;32;34965;-88
2023/01/06 21:12:57;;;;;;;29.60;16.10;;;;;;;6.90;100.00;100967.62;5583986;32;34116;-89
2023/01/06 21:16:00;;;;;;;32.10;16.52;;;;;;;6.99;100.00;100966.53;5584215;32;35019;-89
2023/01/06 21:19:03;;;;;;;25.77;15.95;;;;;;;6.89;100.00;100960.59;5581222;32;33975;-89
2023/01/06 21:22:05;;;;;;;27.95;16.87;;;;;;;6.93;100.00;100962.25;5581722;32;33882;-89
2023/01/06 21:25:08;;;;;;;32.97;16.77;;;;;;;6.84;100.00;100965.97;5584272;32;35461;-89
2023/01/06 21:28:11;;;;;;;35.53;17.92;;;;;;;6.71;100.00;100961.91;5584183;32;34836;-86
2023/01/06 21:31:14;;;;;;;33.83;18.12;;;;;;;6.63;100.00;100956.81;5583098;32;34069;-88
2023/01/06 21:34:17;;;;;;;28.00;17.83;;;;;;;6.64;100.00;100957.69;5584372;32;34194;-89
2023/01/06 21:37:20;;;;;;;30.42;16.98;;;;;;;6.66;100.00;100962.03;5582762;32;33946;-88
2023/01/06 21:40:24;;;;;;;34.28;17.42;;;;;;;6.67;100.00;100984.84;5584627;32;34952;-87
2023/01/06 21:43:27;;;;;;;33.92;18.02;;;;;;;6.72;100.00;100977.72;5582980;32;32835;-87
2023/01/06 21:46:30;;;;;;;29.15;17.25;;;;;;;6.77;100.00;100969.69;5584008;32;35290;-87
2023/01/06 21:49:33;;;;;;;36.50;19.12;;;;;;;6.64;100.00;100966.47;5584607;32;34297;-87
2023/01/06 21:52:36;;;;;;;33.65;17.67;;;;;;;6.49;100.00;100972.09;5580284;32;34156;-87
2023/01/06 21:55:40;;;;;;;31.08;15.70;;;;;;;6.55;100.00;100962.28;5584077;32;33600;-87
2023/01/06 21:58:43;;;;;;;28.42;17.08;;;;;;;6.50;100.00;100958.91;5583746;32;36569;-87
2023/01/06 22:01:46;;;;;;;31.87;16.85;;;;;;;6.53;100.00;100955.34;5584392;32;33976;-87
2023/01/06 22:04:49;;;;;;;37.50;20.48;;;;;;;6.27;100.00;100962.91;5583575;32;35344;-87
2023/01/06 22:07:53;;;;;;;34.38;19.15;;;;;;;6.33;100.00;100956.63;5582790;32;32950;-87
2023/01/06 22:10:57;;;;;;;31.55;18.92;;;;;;;6.29;100.00;100945.28;5584065;32;33767;-88
2023/01/06 22:14:00;;;;;;;39.00;20.42;;;;;;;6.38;100.00;100953.91;5584519;32;34975;-87
2023/01/06 22:17:03;;;;;;;33.13;19.35;;;;;;;6.29;100.00;100950.56;5583540;32;34090;-87
2023/01/06 22:20:07;;;;;;;32.60;20.08;;;;;;;6.36;100.00;100946.03;5577293;32;33429;-87
2023/01/06 22:23:14;;;;;;;37.25;19.92;;;;;;;6.13;100.00;100941.28;5580041;32;33625;-87
2023/01/06 22:26:17;;;;;;;38.13;20.50;;;;;;;6.09;100.00;100945.75;5583282;32;33892;-87
2023/01/06 22:29:20;;;;;;;38.00;21.05;;;;;;;5.99;100.00;100955.56;5582726;32;34037;-88
2023/01/06 22:32:22;;;;;;;41.28;21.42;;;;;;;5.95;100.00;100951.28;5583167;32;35254;-88
2023/01/06 22:35:25;;;;;;;41.95;21.37;;;;;;;6.03;100.00;100954.66;5583480;32;35086;-88
2023/01/06 22:38:28;;;;;;;35.97;21.27;;;;;;;5.88;100.00;100963.72;5583536;32;35302;-88
2023/01/06 22:41:31;;;;;;;34.88;20.27;;;;;;;5.82;100.00;100963.84;5583615;32;33811;-88
2023/01/06 22:44:34;;;;;;;34.35;20.92;;;;;;;5.82;100.00;100950.66;5580224;32;34902;-88
2023/01/06 22:47:37;;;;;;;38.90;22.17;;;;;;;5.76;100.00;100958.69;5568734;32;34851;-88
2023/01/06 22:50:39;;;;;;;43.03;22.70;;;;;;;5.71;100.00;100961.44;5570987;32;33438;-88
2023/01/06 22:53:42;;;;;;;45.60;21.95;;;;;;;5.67;100.00;100949.22;5578850;32;34601;-86
2023/01/06 22:56:45;;;;;;;36.42;21.15;;;;;;;5.50;100.00;100941.66;5571561;32;34190;-88
2023/01/06 22:59:48;;;;;;;38.55;21.50;;;;;;;5.44;100.00;100945.28;5569399;32;33934;-88
2023/01/06 23:02:50;;;;;;;42.83;21.67;;;;;;;5.35;100.00;100943.69;5569614;32;33888;-88
2023/01/06 23:05:57;;;;;;;35.17;20.98;;;;;;;5.30;100.00;100948.16;5575886;32;33997;-91
2023/01/06 23:09:00;;;;;;;38.38;21.00;;;;;;;5.27;100.00;100950.84;5569858;32;34722;-90
2023/01/06 23:12:03;;;;;;;39.25;21.80;;;;;;;5.10;100.00;100948.53;5569559;32;34285;-90
2023/01/06 23:15:07;;;;;;;40.65;21.85;;;;;;;5.05;100.00;100953.00;5569901;32;33864;-87
2023/01/06 23:18:10;;;;;;;41.97;22.75;;;;;;;4.97;100.00;100953.13;5570018;32;34770;-86
2023/01/06 23:21:18;;;;;;;38.33;21.83;;;;;;;4.84;100.00;100941.97;5569866;32;34335;-88
2023/01/06 23:24:23;;;;;;;40.65;22.58;;;;;;;4.79;100.00;100944.69;5568590;32;34390;-87
2023/01/06 23:27:25;;;;;;;42.90;23.02;;;;;;;4.67;100.00;100958.87;5568426;32;32893;-87
2023/01/06 23:30:28;;;;;;;39.90;23.45;;;;;;;4.55;100.00;100953.81;5570520;32;33953;-87
2023/01/06 23:33:35;;;;;;;44.65;23.35;;;;;;;4.47;100.00;100947.81;5564127;32;33661;-87
2023/01/06 23:36:39;;;;;;;41.45;22.45;;;;;;;4.44;100.00;100957.44;5568276;32;34578;-87
2023/01/06 23:39:41;;;;;;;41.42;23.65;;;;;;;4.39;100.00;100953.16;5569131;32;33698;-87
2023/01/06 23:42:44;;;;;;;44.35;23.62;;;;;;;4.30;100.00;100946.28;5569017;32;33932;-87
2023/01/06 23:45:50;;;;;;;42.38;24.02;;;;;;;4.25;100.00;100953.34;5569594;32;34906;-87
2023/01/06 23:48:54;;;;;;;41.03;23.27;;;;;;;4.23;100.00;100952.53;5569566;32;33968;-87
2023/01/06 23:51:57;;;;;;;42.40;23.65;;;;;;;4.23;100.00;100947.28;5569257;32;34234;-87
2023/01/06 23:54:59;;;;;;;41.67;23.25;;;;;;;4.18;100.00;100952.59;5575605;32;34216;-87
2023/01/06 23:58:02;;;;;;;42.65;22.25;;;;;;;4.13;100.00;100949.16;5569441;32;33759;-87
